createdAt,value
2017-11-08T00:00:38.006Z,6.80
2017-11-08T00:03:05.430Z,6.80
2017-11-08T00:05:34.341Z,6.80
2017-11-08T00:08:02.104Z,6.80
2017-11-08T00:10:29.573Z,6.80
2017-11-08T00:12:57.065Z,6.80
2017-11-08T00:15:24.497Z,6.80
2017-11-08T00:17:55.890Z,6.80
2017-11-08T00:20:23.368Z,6.80
2017-11-08T00:22:51.592Z,6.70
2017-11-08T00:25:19.042Z,6.70
2017-11-08T00:27:47.651Z,6.70
2017-11-08T00:30:15.092Z,6.70
2017-11-08T00:32:42.576Z,6.70
2017-11-08T00:35:10.037Z,6.70
2017-11-08T00:37:37.515Z,6.70
2017-11-08T00:40:06.545Z,6.70
2017-11-08T00:42:33.974Z,6.70
2017-11-08T00:45:01.401Z,6.70
2017-11-08T00:47:31.735Z,6.70
2017-11-08T00:49:59.928Z,6.70
2017-11-08T00:52:29.292Z,6.70
2017-11-08T00:54:56.819Z,6.70
2017-11-08T00:57:30.026Z,6.70
2017-11-08T00:59:59.416Z,6.60
2017-11-08T01:02:27.617Z,6.60
2017-11-08T01:04:55.046Z,6.60
2017-11-08T01:07:22.477Z,6.60
2017-11-08T01:09:54.270Z,6.60
2017-11-08T01:12:21.697Z,6.60
2017-11-08T01:15:09.429Z,6.60
2017-11-08T01:17:36.850Z,6.60
2017-11-08T01:20:05.077Z,6.60
2017-11-08T01:22:32.508Z,6.60
2017-11-08T01:24:59.931Z,6.60
2017-11-08T01:27:27.885Z,6.60
2017-11-08T01:29:55.309Z,6.60
2017-11-08T01:32:22.752Z,6.60
2017-11-08T01:34:50.168Z,6.60
2017-11-08T01:37:23.324Z,6.70
2017-11-08T01:39:50.753Z,6.70
2017-11-08T01:42:18.198Z,6.70
2017-11-08T01:44:48.427Z,6.70
2017-11-08T01:47:16.624Z,6.70
2017-11-08T01:49:47.372Z,6.60
2017-11-08T01:52:16.737Z,6.70
2017-11-08T01:54:44.915Z,6.70
2017-11-08T01:57:14.872Z,6.70
2017-11-08T01:59:43.525Z,6.70
2017-11-08T02:02:11.785Z,6.70
2017-11-08T02:04:39.987Z,6.70
2017-11-08T02:07:07.425Z,6.60
2017-11-08T02:09:34.849Z,6.60
2017-11-08T02:12:07.625Z,6.60
2017-11-08T02:14:35.057Z,6.60
2017-11-08T02:17:02.497Z,6.70
2017-11-08T02:19:30.188Z,6.70
2017-11-08T02:21:58.217Z,6.60
2017-11-08T02:24:27.413Z,6.60
2017-11-08T02:27:00.528Z,6.70
2017-11-08T02:29:29.732Z,6.70
2017-11-08T02:31:58.463Z,6.80
2017-11-08T02:34:26.660Z,6.70
2017-11-08T02:36:54.822Z,6.70
2017-11-08T02:39:23.010Z,6.70
2017-11-08T02:41:50.436Z,6.60
2017-11-08T02:44:18.629Z,6.70
2017-11-08T02:46:46.564Z,6.70
2017-11-08T02:49:13.987Z,6.70
2017-11-08T02:51:41.825Z,6.70
2017-11-08T02:54:09.261Z,6.70
2017-11-08T02:56:36.688Z,6.70
2017-11-08T02:59:04.322Z,6.60
2017-11-08T03:01:31.761Z,6.70
2017-11-08T03:04:13.891Z,6.70
2017-11-08T03:07:00.913Z,6.70
2017-11-08T03:09:28.356Z,6.70
2017-11-08T03:11:56.169Z,6.70
2017-11-08T03:14:23.603Z,6.60
2017-11-08T03:16:51.037Z,6.60
2017-11-08T03:19:18.486Z,6.60
2017-11-08T03:21:45.908Z,6.60
2017-11-08T03:24:14.099Z,6.70
2017-11-08T03:26:41.524Z,6.60
2017-11-08T03:29:09.564Z,6.70
2017-11-08T03:31:37.425Z,6.70
2017-11-08T03:34:05.558Z,6.60
2017-11-08T03:36:33.254Z,6.70
2017-11-08T03:39:00.657Z,6.70
2017-11-08T03:41:28.092Z,6.70
2017-11-08T03:43:55.515Z,6.70
2017-11-08T03:46:22.953Z,6.60
2017-11-08T03:48:50.385Z,6.70
2017-11-08T03:51:18.256Z,6.70
2017-11-08T03:53:46.446Z,6.70
2017-11-08T03:56:14.650Z,6.70
2017-11-08T03:58:42.416Z,6.70
2017-11-08T04:01:09.852Z,6.60
2017-11-08T04:03:37.276Z,6.60
2017-11-08T04:06:04.700Z,6.50
2017-11-08T04:08:32.124Z,6.50
2017-11-08T04:10:59.552Z,6.50
2017-11-08T04:13:27.197Z,6.40
2017-11-08T04:15:54.904Z,6.40
2017-11-08T04:18:22.345Z,6.30
2017-11-08T04:20:50.544Z,6.30
2017-11-08T04:23:18.409Z,6.30
2017-11-08T04:25:45.825Z,6.30
2017-11-08T04:28:13.537Z,6.20
2017-11-08T04:30:40.961Z,6.20
2017-11-08T04:33:09.745Z,6.10
2017-11-08T04:35:38.736Z,6.10
2017-11-08T04:38:06.930Z,6.10
2017-11-08T04:40:34.344Z,6.10
2017-11-08T04:43:02.205Z,6.10
2017-11-08T04:45:29.633Z,6.10
2017-11-08T04:47:57.477Z,6.10
2017-11-08T04:50:24.925Z,6.10
2017-11-08T04:52:53.123Z,6.10
2017-11-08T04:55:20.546Z,6.10
2017-11-08T04:57:51.196Z,6.10
2017-11-08T05:00:18.622Z,6.10
2017-11-08T05:02:48.631Z,6.10
2017-11-08T05:05:16.387Z,6.10
2017-11-08T05:07:45.653Z,6.10
2017-11-08T05:10:14.569Z,6.10
2017-11-08T05:12:42.496Z,6.10
2017-11-08T05:15:10.626Z,6.10
2017-11-08T05:17:38.055Z,6.10
2017-11-08T05:20:05.476Z,6.10
2017-11-08T05:22:33.673Z,6.10
2017-11-08T05:25:02.249Z,6.10
2017-11-08T05:27:29.681Z,6.10
2017-11-08T05:29:57.878Z,6.00
2017-11-08T05:32:25.310Z,6.00
2017-11-08T05:34:53.508Z,6.00
2017-11-08T05:37:20.996Z,5.90
2017-11-08T05:39:48.416Z,5.90
2017-11-08T05:42:16.433Z,5.90
2017-11-08T05:44:44.641Z,5.80
2017-11-08T05:47:13.272Z,5.80
2017-11-08T05:49:40.699Z,5.80
2017-11-08T05:52:08.134Z,5.80
2017-11-08T05:54:36.820Z,5.80
2017-11-08T05:57:05.016Z,5.80
2017-11-08T05:59:32.440Z,5.80
2017-11-08T06:01:59.872Z,5.80
2017-11-08T06:04:27.970Z,5.80
2017-11-08T06:06:55.384Z,5.90
2017-11-08T06:09:23.225Z,5.90
2017-11-08T06:11:50.652Z,5.90
2017-11-08T06:14:18.080Z,5.90
2017-11-08T06:16:45.512Z,5.90
2017-11-08T06:19:12.933Z,5.90
2017-11-08T06:21:41.133Z,5.80
2017-11-08T06:24:08.548Z,5.80
2017-11-08T06:26:35.980Z,5.80
2017-11-08T06:29:03.403Z,5.90
2017-11-08T06:31:31.564Z,5.90
2017-11-08T06:33:59.756Z,5.90
2017-11-08T06:36:27.192Z,5.90
2017-11-08T06:38:55.381Z,6.00
2017-11-08T06:41:22.795Z,6.00
2017-11-08T06:43:50.238Z,6.00
2017-11-08T06:46:18.081Z,6.00
2017-11-08T06:48:45.514Z,6.10
2017-11-08T06:51:15.369Z,6.10
2017-11-08T06:53:42.806Z,6.10
2017-11-08T06:56:10.224Z,6.10
2017-11-08T06:58:38.432Z,6.00
2017-11-08T07:01:05.860Z,6.00
2017-11-08T07:03:33.293Z,6.00
2017-11-08T07:06:00.727Z,6.10
2017-11-08T07:08:30.264Z,6.00
2017-11-08T07:11:03.480Z,6.10
2017-11-08T07:13:37.950Z,6.00
2017-11-08T07:16:06.307Z,6.00
2017-11-08T07:18:34.459Z,6.10
2017-11-08T07:21:01.882Z,6.10
2017-11-08T07:23:29.314Z,6.10
2017-11-08T07:25:56.750Z,6.20
2017-11-08T07:28:24.536Z,6.20
2017-11-08T07:30:52.567Z,6.20
2017-11-08T07:33:19.991Z,6.20
2017-11-08T07:35:47.417Z,6.30
2017-11-08T07:38:14.844Z,6.30
2017-11-08T07:40:42.273Z,6.40
2017-11-08T07:43:10.472Z,6.40
2017-11-08T07:45:38.108Z,6.30
2017-11-08T07:48:06.302Z,6.40
2017-11-08T07:50:34.280Z,6.40
2017-11-08T07:53:01.714Z,6.50
2017-11-08T07:55:35.664Z,6.50
2017-11-08T07:58:05.022Z,6.50
2017-11-08T08:00:33.203Z,6.50
2017-11-08T08:03:01.400Z,6.50
2017-11-08T08:05:28.824Z,6.40
2017-11-08T08:07:57.794Z,6.40
2017-11-08T08:10:25.220Z,6.40
2017-11-08T08:12:52.647Z,6.40
2017-11-08T08:15:20.068Z,6.40
2017-11-08T08:17:47.513Z,6.40
2017-11-08T08:20:14.945Z,6.40
2017-11-08T08:22:42.375Z,6.40
2017-11-08T08:25:10.573Z,6.30
2017-11-08T08:27:38.443Z,6.30
2017-11-08T08:30:06.433Z,6.40
2017-11-08T08:32:34.699Z,6.40
2017-11-08T08:35:02.888Z,6.50
2017-11-08T08:37:30.327Z,6.40
2017-11-08T08:39:58.012Z,6.50
2017-11-08T08:42:25.422Z,6.50
2017-11-08T08:44:52.849Z,6.60
2017-11-08T08:47:20.272Z,6.60
2017-11-08T08:49:48.233Z,6.60
2017-11-08T08:52:15.676Z,6.60
2017-11-08T08:54:43.097Z,6.50
2017-11-08T08:57:11.289Z,6.50
2017-11-08T08:59:39.322Z,6.50
2017-11-08T09:02:12.750Z,6.50
2017-11-08T09:04:40.933Z,6.50
2017-11-08T09:07:08.365Z,6.50
2017-11-08T09:09:36.556Z,6.40
2017-11-08T09:12:03.986Z,6.40
2017-11-08T09:14:31.414Z,6.40
2017-11-08T09:16:58.835Z,6.40
2017-11-08T09:19:26.260Z,6.50
2017-11-08T09:21:54.448Z,6.50
2017-11-08T09:24:22.689Z,6.60
2017-11-08T09:26:50.172Z,6.60
2017-11-08T09:29:17.611Z,6.70
2017-11-08T09:31:58.837Z,6.70
2017-11-08T09:34:27.589Z,6.70
2017-11-08T09:36:57.461Z,6.70
2017-11-08T09:39:25.884Z,6.70
2017-11-08T09:44:57.812Z,6.80
2017-11-08T09:47:26.014Z,6.80
2017-11-08T09:49:53.928Z,6.80
2017-11-08T09:52:21.370Z,6.80
2017-11-08T09:54:48.800Z,6.90
2017-11-08T09:57:16.239Z,6.90
2017-11-08T09:59:43.656Z,6.80
2017-11-08T10:02:11.077Z,6.80
2017-11-08T10:04:38.516Z,6.80
2017-11-08T10:07:05.949Z,6.80
2017-11-08T10:09:37.082Z,6.80
2017-11-08T10:12:11.925Z,6.80
2017-11-08T10:14:40.674Z,6.90
2017-11-08T10:17:10.931Z,6.90
2017-11-08T10:19:39.133Z,6.90
2017-11-08T10:22:09.508Z,6.90
2017-11-08T10:24:37.141Z,6.90
2017-11-08T10:27:04.656Z,6.90
2017-11-08T10:29:32.031Z,7.00
2017-11-08T10:31:59.448Z,7.00
2017-11-08T10:34:27.664Z,7.00
2017-11-08T10:36:55.159Z,7.00
2017-11-08T10:39:23.720Z,7.00
2017-11-08T10:41:51.145Z,6.90
2017-11-08T10:44:18.561Z,7.00
2017-11-08T10:46:47.735Z,7.00
2017-11-08T10:49:20.912Z,7.10
2017-11-08T10:51:48.342Z,7.00
2017-11-08T10:54:15.798Z,7.10
2017-11-08T10:56:43.227Z,7.10
2017-11-08T10:59:16.415Z,7.10
2017-11-08T11:01:43.866Z,7.20
2017-11-08T11:04:11.304Z,7.10
2017-11-08T11:06:39.496Z,7.30
2017-11-08T11:09:06.938Z,7.20
2017-11-08T11:11:34.377Z,7.20
2017-11-08T11:14:07.388Z,7.30
2017-11-08T11:16:35.576Z,7.40
2017-11-08T11:19:03.014Z,7.40
2017-11-08T11:21:31.207Z,7.40
2017-11-08T11:24:01.992Z,7.50
2017-11-08T11:26:34.453Z,7.40
2017-11-08T11:29:01.879Z,7.50
2017-11-08T11:31:29.311Z,7.60
2017-11-08T11:33:56.747Z,7.60
2017-11-08T11:36:24.179Z,7.60
2017-11-08T11:38:54.410Z,7.60
2017-11-08T11:41:22.564Z,7.60
2017-11-08T11:43:50.007Z,7.60
2017-11-08T11:46:18.187Z,7.60
2017-11-08T11:48:49.448Z,7.60
2017-11-08T11:51:22.492Z,7.60
2017-11-08T11:53:49.925Z,7.60
2017-11-08T11:56:17.366Z,7.60
2017-11-08T11:58:44.808Z,7.70
2017-11-08T12:01:12.237Z,7.60
2017-11-08T12:03:40.428Z,7.70
2017-11-08T12:06:08.289Z,7.60
2017-11-08T12:08:35.730Z,7.70
2017-11-08T12:11:03.955Z,7.80
2017-11-08T12:13:38.045Z,7.80
2017-11-08T12:16:07.904Z,7.80
2017-11-08T12:18:35.344Z,7.90
2017-11-08T12:21:02.761Z,8.00
2017-11-08T12:23:30.501Z,8.10
2017-11-08T12:25:57.920Z,8.10
2017-11-08T12:28:30.977Z,8.20
2017-11-08T12:31:03.076Z,8.20
2017-11-08T12:33:36.918Z,8.10
2017-11-08T12:36:04.345Z,8.10
2017-11-08T12:38:32.507Z,8.10
2017-11-08T12:40:59.927Z,7.90
2017-11-08T12:43:30.018Z,7.70
2017-11-08T12:46:01.126Z,7.70
2017-11-08T12:48:28.998Z,7.70
2017-11-08T12:50:56.435Z,7.80
2017-11-08T12:53:23.862Z,7.80
2017-11-08T12:55:52.084Z,8.00
2017-11-08T12:58:22.050Z,8.00
2017-11-08T13:00:50.249Z,8.10
2017-11-08T13:03:17.713Z,8.10
2017-11-08T13:05:50.762Z,8.10
2017-11-08T13:08:19.146Z,8.10
2017-11-08T13:13:53.637Z,8.00
2017-11-08T13:16:21.055Z,8.00
2017-11-08T13:18:49.341Z,7.90
2017-11-08T13:21:17.538Z,8.00
2017-11-08T13:23:44.974Z,8.00
2017-11-08T13:26:13.060Z,8.00
2017-11-08T13:28:40.502Z,8.00
2017-11-08T13:31:07.932Z,8.00
2017-11-08T13:33:35.683Z,8.00
2017-11-08T13:36:03.137Z,7.90
2017-11-08T13:38:30.765Z,7.90
2017-11-08T13:40:58.384Z,7.90
2017-11-08T13:43:26.591Z,7.90
2017-11-08T13:45:54.950Z,7.90
2017-11-08T13:48:23.228Z,7.70
2017-11-08T13:50:51.857Z,7.70
2017-11-08T13:53:19.320Z,7.70
2017-11-08T13:55:46.737Z,7.70
2017-11-08T13:58:14.161Z,7.60
2017-11-08T14:00:41.597Z,7.60
2017-11-08T14:03:09.032Z,7.60
2017-11-08T14:05:36.696Z,7.60
2017-11-08T14:08:04.117Z,7.60
2017-11-08T14:10:32.320Z,7.50
2017-11-08T14:12:59.752Z,7.50
2017-11-08T14:15:28.369Z,7.50
2017-11-08T14:17:55.800Z,7.50
2017-11-08T14:20:23.230Z,7.50
2017-11-08T14:22:52.578Z,7.50
2017-11-08T14:25:20.006Z,7.50
2017-11-08T14:27:48.196Z,7.40
2017-11-08T14:30:15.639Z,7.40
2017-11-08T14:32:43.839Z,7.50
2017-11-08T14:35:12.131Z,7.40
2017-11-08T14:37:39.562Z,7.50
2017-11-08T14:40:07.040Z,7.50
2017-11-08T14:42:39.137Z,7.40
2017-11-08T14:45:06.581Z,7.50
2017-11-08T14:47:34.012Z,7.50
2017-11-08T14:50:01.437Z,7.50
2017-11-08T14:52:30.470Z,7.50
2017-11-08T14:54:57.920Z,7.40
2017-11-08T14:57:25.338Z,7.40
2017-11-08T14:59:53.543Z,7.40
2017-11-08T15:02:21.167Z,7.40
2017-11-08T15:04:48.648Z,7.40
2017-11-08T15:07:16.834Z,7.40
2017-11-08T15:09:44.270Z,7.40
2017-11-08T15:12:12.465Z,7.40
2017-11-08T15:14:42.696Z,7.40
2017-11-08T15:17:10.541Z,7.30
2017-11-08T15:19:44.384Z,7.30
2017-11-08T15:22:11.824Z,7.30
2017-11-08T15:24:39.261Z,7.30
2017-11-08T15:27:07.469Z,7.20
2017-11-08T15:29:36.851Z,7.30
2017-11-08T15:32:04.699Z,7.20
2017-11-08T15:34:34.728Z,7.20
2017-11-08T15:37:02.946Z,7.20
2017-11-08T15:39:30.597Z,7.20
2017-11-08T15:41:58.042Z,7.10
2017-11-08T15:44:25.468Z,7.10
2017-11-08T15:46:54.452Z,7.10
2017-11-08T15:49:22.657Z,7.10
2017-11-08T15:51:50.082Z,7.10
2017-11-08T15:54:18.708Z,7.00
2017-11-08T15:56:46.134Z,7.00
2017-11-08T15:59:14.402Z,7.10
2017-11-08T16:01:45.058Z,7.10
2017-11-08T16:04:12.511Z,7.00
2017-11-08T16:06:40.707Z,7.10
2017-11-08T16:09:10.041Z,7.10
2017-11-08T16:11:37.478Z,7.10
2017-11-08T16:14:05.489Z,7.00
2017-11-08T16:16:33.711Z,7.00
2017-11-08T16:19:03.098Z,7.00
2017-11-08T16:21:31.601Z,7.00
2017-11-08T16:23:59.015Z,7.00
2017-11-08T16:26:27.274Z,7.00
2017-11-08T16:28:54.733Z,7.00
2017-11-08T16:31:22.175Z,7.00
2017-11-08T16:33:50.570Z,7.00
2017-11-08T16:36:18.023Z,7.00
2017-11-08T16:38:45.463Z,7.00
2017-11-08T16:41:13.724Z,6.90
2017-11-08T16:43:41.265Z,7.00
2017-11-08T16:46:08.711Z,6.90
2017-11-08T16:48:36.150Z,6.90
2017-11-08T16:51:04.879Z,6.90
2017-11-08T16:53:32.323Z,6.90
2017-11-08T16:55:59.772Z,7.00
2017-11-08T16:58:28.113Z,7.00
2017-11-08T17:00:56.505Z,7.00
2017-11-08T17:03:24.715Z,6.90
2017-11-08T17:05:52.213Z,6.90
2017-11-08T17:08:20.629Z,6.90
2017-11-08T17:10:48.838Z,6.90
2017-11-08T17:13:16.285Z,6.90
2017-11-08T17:15:43.726Z,6.90
2017-11-08T17:18:11.173Z,6.90
2017-11-08T17:20:39.371Z,6.90
2017-11-08T17:23:07.330Z,6.90
2017-11-08T17:25:34.780Z,6.90
2017-11-08T17:28:02.665Z,7.00
2017-11-08T17:30:30.374Z,7.00
2017-11-08T17:32:57.802Z,7.00
2017-11-08T17:35:25.767Z,7.00
2017-11-08T17:37:53.730Z,7.00
2017-11-08T17:40:21.732Z,7.00
2017-11-08T17:42:50.272Z,6.90
2017-11-08T17:45:18.198Z,6.90
2017-11-08T17:47:46.261Z,6.90
2017-11-08T17:50:14.794Z,6.90
2017-11-08T17:52:42.231Z,6.90
2017-11-08T17:55:10.124Z,7.00
2017-11-08T17:57:38.207Z,7.00
2017-11-08T18:00:05.709Z,7.00
2017-11-08T18:02:33.952Z,7.00
2017-11-08T18:05:02.201Z,7.00
2017-11-08T18:07:29.652Z,7.00
2017-11-08T18:09:57.089Z,7.00
2017-11-08T18:12:25.279Z,7.00
2017-11-08T18:14:52.726Z,7.00
2017-11-08T18:17:20.167Z,7.00
2017-11-08T18:19:48.364Z,6.90
2017-11-08T18:22:16.378Z,6.90
2017-11-08T18:24:43.816Z,7.00
2017-11-08T18:27:11.242Z,6.90
2017-11-08T18:29:38.678Z,6.90
2017-11-08T18:32:06.870Z,7.00
2017-11-08T18:34:34.313Z,7.00
2017-11-08T18:37:02.501Z,7.00
2017-11-08T18:39:30.238Z,7.00
2017-11-08T18:41:57.657Z,6.90
2017-11-08T18:44:26.289Z,7.00
2017-11-08T18:46:54.539Z,6.90
2017-11-08T18:49:21.954Z,6.90
2017-11-08T18:51:49.391Z,6.90
2017-11-08T18:54:17.576Z,6.90
2017-11-08T18:56:45.335Z,6.90
2017-11-08T18:59:14.500Z,6.90
2017-11-08T19:01:42.624Z,6.90
2017-11-08T19:04:10.064Z,6.90
2017-11-08T19:06:38.833Z,6.90
2017-11-08T19:09:07.026Z,6.90
2017-11-08T19:11:34.476Z,6.90
2017-11-08T19:14:02.674Z,6.90
2017-11-08T19:16:30.298Z,6.90
2017-11-08T19:18:58.767Z,6.90
2017-11-08T19:21:26.197Z,6.90
2017-11-08T19:23:53.630Z,6.90
2017-11-08T19:26:21.065Z,6.90
2017-11-08T19:28:48.504Z,6.90
2017-11-08T19:31:15.933Z,6.90
2017-11-08T19:33:43.370Z,6.90
2017-11-08T19:36:10.829Z,6.80
2017-11-08T19:38:38.317Z,6.90
2017-11-08T19:41:07.645Z,6.90
2017-11-08T19:43:35.822Z,7.00
2017-11-08T19:46:03.270Z,6.90
2017-11-08T19:48:30.680Z,6.90
2017-11-08T19:50:58.124Z,6.90
2017-11-08T19:53:25.665Z,6.90
2017-11-08T19:55:53.112Z,6.90
2017-11-08T19:58:21.298Z,6.90
2017-11-08T20:00:49.126Z,6.90
2017-11-08T20:03:16.541Z,6.90
2017-11-08T20:05:44.090Z,6.90
2017-11-08T20:08:11.521Z,6.90
2017-11-08T20:10:40.279Z,6.80
2017-11-08T20:13:08.113Z,6.80
2017-11-08T20:15:42.089Z,6.80
2017-11-08T20:18:09.530Z,6.80
2017-11-08T20:20:37.946Z,6.70
2017-11-08T20:23:05.382Z,6.70
2017-11-08T20:25:32.843Z,6.70
2017-11-08T20:28:00.274Z,6.70
2017-11-08T20:30:28.495Z,6.70
2017-11-08T20:32:55.918Z,6.60
2017-11-08T20:35:24.124Z,6.60
2017-11-08T20:37:54.940Z,6.60
2017-11-08T20:40:22.373Z,6.60
2017-11-08T20:42:50.581Z,6.60
2017-11-08T20:45:18.006Z,6.60
2017-11-08T20:47:46.505Z,6.60
2017-11-08T20:50:14.705Z,6.60
2017-11-08T20:52:42.194Z,6.50
2017-11-08T20:55:10.328Z,6.60
2017-11-08T20:57:37.757Z,6.50
2017-11-08T21:00:05.964Z,6.70
2017-11-08T21:02:33.386Z,6.60
2017-11-08T21:05:02.098Z,6.60
2017-11-08T21:07:29.947Z,6.60
2017-11-08T21:09:58.130Z,6.50
2017-11-08T21:12:25.566Z,6.50
2017-11-08T21:14:53.761Z,6.50
2017-11-08T21:17:21.206Z,6.50
2017-11-08T21:19:49.399Z,6.50
2017-11-08T21:22:17.226Z,6.50
2017-11-08T21:24:45.324Z,6.50
2017-11-08T21:27:13.530Z,6.60
2017-11-08T21:29:41.286Z,6.50
2017-11-08T21:32:08.716Z,6.60
2017-11-08T21:34:37.639Z,6.60
2017-11-08T21:37:05.092Z,6.60
2017-11-08T21:39:33.135Z,6.60
2017-11-08T21:42:01.322Z,6.60
2017-11-08T21:44:28.770Z,6.60
2017-11-08T21:46:57.234Z,6.60
2017-11-08T21:49:24.655Z,6.60
2017-11-08T21:51:52.086Z,6.60
2017-11-08T21:54:19.532Z,6.60
2017-11-08T21:56:47.551Z,6.60
2017-11-08T21:59:15.000Z,6.60
2017-11-08T22:01:42.433Z,6.60
2017-11-08T22:04:09.874Z,6.60
2017-11-08T22:06:37.318Z,6.60
2017-11-08T22:09:05.519Z,6.70
2017-11-08T22:11:33.032Z,6.60
2017-11-08T22:14:00.998Z,6.60
2017-11-08T22:16:28.448Z,6.70
2017-11-08T22:18:56.351Z,6.70
2017-11-08T22:21:23.786Z,6.70
2017-11-08T22:23:51.223Z,6.70
2017-11-08T22:26:18.659Z,6.70
2017-11-08T22:28:46.115Z,6.60
2017-11-08T22:31:13.533Z,6.60
2017-11-08T22:33:40.970Z,6.60
2017-11-08T22:36:09.211Z,6.60
2017-11-08T22:38:36.652Z,6.60
2017-11-08T22:41:04.082Z,6.70
2017-11-08T22:43:31.898Z,6.60
2017-11-08T22:45:59.326Z,6.70
2017-11-08T22:48:26.770Z,6.70
2017-11-08T22:50:54.244Z,6.70
2017-11-08T22:53:21.869Z,6.70
2017-11-08T22:55:51.987Z,6.70
2017-11-08T22:58:20.725Z,6.70
2017-11-08T23:00:48.169Z,6.70
2017-11-08T23:03:15.602Z,6.70
2017-11-08T23:05:43.046Z,6.70
2017-11-08T23:08:12.022Z,6.70
2017-11-08T23:10:41.408Z,6.70
2017-11-08T23:13:08.834Z,6.70
2017-11-08T23:15:36.285Z,6.70
2017-11-08T23:18:03.706Z,6.70
2017-11-08T23:20:31.914Z,6.70
2017-11-08T23:22:59.349Z,6.70
2017-11-08T23:25:29.209Z,6.70
2017-11-08T23:27:56.746Z,6.70
2017-11-08T23:30:24.200Z,6.70
2017-11-08T23:32:51.660Z,6.70
2017-11-08T23:35:19.086Z,6.70
2017-11-08T23:37:47.288Z,6.60
2017-11-08T23:40:14.972Z,6.60
2017-11-08T23:42:42.407Z,6.60
2017-11-08T23:45:09.867Z,6.60
2017-11-08T23:47:37.303Z,6.70
2017-11-08T23:50:04.733Z,6.70
2017-11-08T23:52:32.941Z,6.70
2017-11-08T23:55:00.889Z,6.70
2017-11-08T23:57:29.085Z,6.70
